Aérodrome :
LOGIN :

S'inscrire | Disclaimer

   EN    FR    IT 

 










Légende :    VFR   VFR Marginal   IFR   IFR Intensif   IFR Très Intensif
Visi : 
Plafond : 
>= 8 km
>= 3000ft
5 à 8 km
1000 à 3000 ft
1500m à 5 km
500 à 1000 ft
800 à 1500m
200 à 500 ft
< 800m
< 200 ft
Symboles :   Orages  Brouillard  Fortes neiges  Fortes précipitations  Vent > 20 kt
SIGMETs :   Divers  Orages  Givrage  Turbulence  Onde Orograph.  Cendres Volcan.







- Altitude de l'aérodrome : 12 ft
- Code IATA : NCE
- Voir les cartes d'approche


LFMN - Nice

DERNIER METAR :
  • 191030Z 09018KT 9999 FEW020 SCT250 21/15 Q1017 NOSIG

METARs EXPIRÉS :
  • 191000Z 08018KT 9999 FEW020 SCT200 21/15 Q1017 NOSIG
  • 190930Z 07014KT 9999 FEW020 SCT200 20/15 Q1017 NOSIG
  • 190900Z 07014KT 9999 FEW020 SCT200 20/14 Q1017 NOSIG
  • 190830Z 06012KT 9999 FEW020 SCT200 20/13 Q1017 NOSIG
  • 190800Z 06008KT 020V090 9999 FEW020 SCT250 20/13 Q1017 NOSIG

TAF AMD TAF LFMN
Valide du 19 à 10h jusqu'au 20 à 15h UTC


191000Z 1910/2015 07015KT 9999 FEW020
TEMPO 1910/1920 09020G30KT
BECMG 1921/1923 34010KT
BECMG 2008/2010 10010KT
ATIS : +33 4 93 17 21 16
Pas de NOTAMs connus pour ce terrain.
3 SIGMETs publiés pour la FIR Marseille (LFMM) :
 
Annulation du SIGMET 7 
LFMM SIGMET 9 VALID 191025/191200 LFPW
LFMM MARSEILLE FIR/UIR CNL SIGMET 7 191000/191200=
Orages noyés dans la masse
LFMM SIGMET 8 VALID 191025/191200 LFPW
LFMM MARSEILLE FIR/UIR EMBD TS OBS WI N3900 E00600 - N3900 E00430 - N4200 E00430 - N4215 E00245 - N4345 E00245 - N4315 E00445 - N4045 E00600 TOP FL360 STNR NC=
SIGMET 7  ANNULÉ :
Orages noyés dans la masse
LFMM SIGMET 7 VALID 191000/191200 LFPW
LFMM MARSEILLE FIR/UIR EMBD TS OBS WI N3900 E00600 - N3900 E00430 - N4200 E00430 - N4215 E00315 - N4230 E00315 - N4215 E00445 - N4045 E00600 TOP FL360 STNR NC=



MET'MAP, la Météo Aéronautique d'un coup d'oeil ! - Copyright ORBIFLY Décembre 2007 - Disclaimer

ORBIFLY MET'MAP TEAM :

Programmation & Développement : Alexandra Zaïnal
Conception & Développement : Baudouin d'Aumeries
Co-Programmation & Développement : Marc-Olivier Méhu
Soutien technique & logistique : Manuel Goepfert

Contact : metmap@orbifly.com




SOURCES & CREDITS :

   NOAA